Time;durP1;ratioP1;P1;durP2;ratioP2;P2;SDS_P1;SDS_P2;PMS_P1;PMS_P2;Temp;Humidity;BMP_temperature;BMP_pressure;BME280_temperature;BME280_humidity;BME280_pressure;Samples;Min_cycle;Max_cycle;Signal;HPM_P1;HPM_P2
2023/12/03 00:02:19;;;;;;;1013.75;924.88;;;1.10;99.90;;;;;;4979534;28;20038;-82
2023/12/03 00:04:45;;;;;;;984.13;902.47;;;2.10;99.90;;;;;;4961587;28;20043;-82
2023/12/03 00:07:12;;;;;;;981.33;896.22;;;1.90;99.90;;;;;;4976157;28;20033;-83
2023/12/03 00:09:38;;;;;;;959.15;880.90;;;0.50;99.90;;;;;;4979758;28;20066;-83
2023/12/03 00:12:07;;;;;;;998.63;911.95;;;2.20;99.90;;;;;;4976548;28;20040;-82
2023/12/03 00:14:34;;;;;;;984.75;902.58;;;0.80;99.90;;;;;;4980560;28;20066;-83
2023/12/03 00:17:00;;;;;;;989.17;905.88;;;0.80;99.90;;;;;;4944838;28;20035;-82
2023/12/03 00:19:26;;;;;;;993.40;908.95;;;1.00;99.90;;;;;;4977174;28;20529;-83
2023/12/03 00:21:52;;;;;;;945.45;867.95;;;0.80;99.90;;;;;;4964448;28;20039;-82
2023/12/03 00:24:18;;;;;;;978.15;898.33;;;0.80;99.90;;;;;;4955520;28;20123;-82
2023/12/03 00:26:43;;;;;;;964.85;885.03;;;0.80;99.90;;;;;;4985007;28;20061;-82
2023/12/03 00:29:12;;;;;;;936.88;862.50;;;1.70;99.90;;;;;;4966358;28;20046;-82
2023/12/03 00:31:38;;;;;;;928.20;854.88;;;0.60;99.90;;;;;;4972054;28;20456;-82
2023/12/03 00:34:05;;;;;;;939.45;863.38;;;1.00;99.90;;;;;;4972748;28;20039;-82
2023/12/03 00:36:32;;;;;;;955.10;874.67;;;0.80;99.90;;;;;;4990289;28;20045;-82
2023/12/03 00:39:01;;;;;;;944.88;867.92;;;-0.40;99.90;;;;;;4978684;28;20122;-82
2023/12/03 00:41:26;;;;;;;971.75;891.58;;;1.60;99.90;;;;;;4962032;28;20034;-82
2023/12/03 00:43:53;;;;;;;992.75;907.70;;;0.50;99.90;;;;;;4969815;28;20030;-82
2023/12/03 00:46:19;;;;;;;997.72;914.28;;;0.50;99.90;;;;;;4971739;28;20077;-82
2023/12/03 00:48:46;;;;;;;991.80;908.72;;;0.60;99.90;;;;;;4980340;28;20478;-82
2023/12/03 00:51:12;;;;;;;993.25;908.22;;;1.40;99.90;;;;;;5004266;28;20041;-82
2023/12/03 00:53:38;;;;;;;994.13;909.85;;;0.60;99.90;;;;;;4975917;28;20041;-83
2023/12/03 00:56:04;;;;;;;969.90;889.10;;;0.60;99.90;;;;;;4981433;28;20050;-82
2023/12/03 00:58:30;;;;;;;967.75;887.85;;;0.60;99.90;;;;;;4972849;28;20122;-82
2023/12/03 01:00:56;;;;;;;951.22;874.20;;;0.60;99.90;;;;;;4975394;28;20038;-82
2023/12/03 01:03:22;;;;;;;950.53;875.05;;;0.60;99.90;;;;;;4956301;28;20109;-82
2023/12/03 01:05:48;;;;;;;926.90;853.90;;;0.50;99.90;;;;;;4961107;28;20042;-82
2023/12/03 01:08:13;;;;;;;910.78;841.33;;;0.40;99.90;;;;;;4970136;28;20085;-82
2023/12/03 01:10:39;;;;;;;923.72;851.42;;;0.40;99.90;;;;;;4959671;28;20046;-83
2023/12/03 01:13:05;;;;;;;914.53;842.88;;;3.00;99.90;;;;;;4959235;28;20042;-83
2023/12/03 01:15:31;;;;;;;921.22;849.60;;;1.70;99.90;;;;;;4979208;28;20203;-82
2023/12/03 01:17:58;;;;;;;910.28;839.85;;;0.10;99.90;;;;;;4968470;28;20031;-82
2023/12/03 01:20:23;;;;;;;896.63;827.42;;;0.20;99.90;;;;;;4981999;28;20034;-82
2023/12/03 01:22:49;;;;;;;902.65;833.90;;;0.10;99.90;;;;;;4979649;28;20039;-82
2023/12/03 01:25:15;;;;;;;890.70;822.90;;;0.10;99.90;;;;;;4980865;28;20058;-82
2023/12/03 01:27:40;;;;;;;888.00;819.95;;;0.00;99.90;;;;;;4969427;28;20038;-82
2023/12/03 01:30:07;;;;;;;878.63;811.63;;;0.00;99.90;;;;;;4981814;28;20045;-82
2023/12/03 01:32:35;;;;;;;886.90;818.38;;;-0.30;99.90;;;;;;4981889;28;20065;-82
2023/12/03 01:35:01;;;;;;;881.80;814.30;;;-0.20;99.90;;;;;;4962576;28;20041;-82
2023/12/03 01:37:27;;;;;;;895.78;826.80;;;-0.20;99.90;;;;;;4979542;28;20066;-83
2023/12/03 01:39:53;;;;;;;874.05;807.30;;;1.10;99.90;;;;;;4961841;28;20047;-82
2023/12/03 01:42:24;;;;;;;876.40;809.22;;;-0.30;99.90;;;;;;4987000;28;20041;-83
2023/12/03 01:44:51;;;;;;;890.25;822.10;;;0.70;99.90;;;;;;4962761;28;20042;-83
2023/12/03 01:47:18;;;;;;;869.67;803.90;;;-0.50;99.90;;;;;;4965889;28;20049;-82
2023/12/03 01:49:45;;;;;;;858.40;792.40;;;-0.50;99.90;;;;;;4984221;28;20042;-82
2023/12/03 01:52:11;;;;;;;895.92;826.45;;;1.10;99.90;;;;;;4986021;28;20039;-83
2023/12/03 01:54:42;;;;;;;860.92;796.00;;;0.50;99.90;;;;;;4982243;28;20046;-82
2023/12/03 01:57:09;;;;;;;867.03;801.33;;;0.60;99.90;;;;;;4962609;28;20034;-83
2023/12/03 01:59:35;;;;;;;917.05;843.78;;;-0.50;99.90;;;;;;4958634;28;20038;-83
2023/12/03 02:02:04;;;;;;;928.72;855.47;;;-0.50;99.90;;;;;;4966549;28;20039;-82
2023/12/03 02:04:30;;;;;;;909.85;837.00;;;-0.50;99.90;;;;;;4961293;28;20042;-83
2023/12/03 02:06:56;;;;;;;913.55;840.60;;;-0.50;99.90;;;;;;4965840;28;20112;-82
2023/12/03 02:09:21;;;;;;;922.58;849.75;;;-0.60;99.90;;;;;;4975251;28;20066;-82
2023/12/03 02:11:47;;;;;;;935.22;860.40;;;1.00;99.90;;;;;;4980973;28;20103;-83
2023/12/03 02:14:14;;;;;;;894.85;826.20;;;-0.60;99.90;;;;;;4978231;28;20035;-83
2023/12/03 02:16:47;;;;;;;930.60;855.70;;;0.00;99.90;;;;;;4970276;28;20034;-82
2023/12/03 02:19:14;;;;;;;928.80;853.88;;;-0.60;99.90;;;;;;4986548;28;20110;-82
2023/12/03 02:21:39;;;;;;;941.25;864.80;;;0.40;99.90;;;;;;4962222;28;20043;-82
2023/12/03 02:24:05;;;;;;;926.63;853.60;;;-0.60;99.90;;;;;;4965026;28;20034;-82
2023/12/03 02:26:31;;;;;;;906.28;836.25;;;0.30;99.90;;;;;;4972976;28;20030;-83
2023/12/03 02:28:57;;;;;;;900.63;830.97;;;-0.20;99.90;;;;;;4960918;28;20126;-82
2023/12/03 02:31:22;;;;;;;920.78;848.80;;;-1.40;99.90;;;;;;4964802;28;20050;-82
2023/12/03 02:34:01;;;;;;;923.80;851.53;;;-0.70;99.90;;;;;;4974911;28;20046;-82
2023/12/03 02:36:27;;;;;;;930.38;857.35;;;-0.70;99.90;;;;;;4980106;28;20037;-82
2023/12/03 02:38:54;;;;;;;913.60;842.67;;;-0.70;99.90;;;;;;4970198;28;20042;-82
2023/12/03 02:41:20;;;;;;;922.35;849.70;;;-0.70;99.90;;;;;;4982063;28;20035;-82
2023/12/03 02:43:46;;;;;;;910.85;840.30;;;-0.70;99.90;;;;;;4987436;28;20057;-82
2023/12/03 02:46:11;;;;;;;933.28;859.15;;;-0.80;99.90;;;;;;4965898;28;20066;-82
2023/12/03 02:48:37;;;;;;;920.10;847.95;;;0.40;99.90;;;;;;4972312;28;20066;-82
2023/12/03 02:51:03;;;;;;;931.22;857.35;;;-0.60;99.90;;;;;;4996887;28;20023;-82
2023/12/03 02:53:28;;;;;;;895.53;827.03;;;-0.80;99.90;;;;;;4975725;28;20039;-82
2023/12/03 02:55:54;;;;;;;924.20;852.00;;;0.60;99.90;;;;;;4941723;29;20057;-82
2023/12/03 02:58:20;;;;;;;928.38;855.78;;;0.30;99.90;;;;;;4967837;28;20038;-82
2023/12/03 03:00:46;;;;;;;917.95;846.58;;;-0.90;99.90;;;;;;4985778;28;20030;-82
2023/12/03 03:03:12;;;;;;;913.88;842.88;;;-1.00;99.90;;;;;;4964441;28;20080;-82
2023/12/03 03:05:37;;;;;;;923.38;851.28;;;-0.90;99.90;;;;;;4960624;28;20039;-83
2023/12/03 03:08:03;;;;;;;950.67;874.65;;;-0.90;99.90;;;;;;4967597;28;20062;-83
2023/12/03 03:10:29;;;;;;;933.97;860.20;;;-0.90;99.90;;;;;;4968089;28;20078;-83
2023/12/03 03:12:54;;;;;;;924.38;852.95;;;0.00;99.90;;;;;;4973007;28;20043;-82
2023/12/03 03:15:20;;;;;;;933.47;858.75;;;0.20;99.90;;;;;;4977158;28;20034;-82
2023/12/03 03:17:46;;;;;;;945.50;868.45;;;-0.70;99.90;;;;;;4963998;28;20089;-82
2023/12/03 03:20:11;;;;;;;925.42;850.58;;;-1.00;99.90;;;;;;4961129;28;20047;-83
2023/12/03 03:22:37;;;;;;;926.95;849.22;;;0.80;99.90;;;;;;4977213;28;20127;-82
2023/12/03 03:25:03;;;;;;;924.58;848.05;;;-0.80;99.90;;;;;;4960073;28;20038;-82
2023/12/03 03:27:29;;;;;;;967.17;880.92;;;-0.70;99.90;;;;;;4977001;28;20053;-82
2023/12/03 03:29:55;;;;;;;958.53;872.15;;;0.10;99.90;;;;;;4977459;28;20042;-82
2023/12/03 03:32:21;;;;;;;918.85;838.83;;;0.80;99.90;;;;;;4948499;29;20109;-83
2023/12/03 03:34:47;;;;;;;938.63;849.00;;;0.20;99.90;;;;;;4951415;28;20504;-82
2023/12/03 03:37:14;;;;;;;945.90;858.90;;;-0.50;99.90;;;;;;4960651;28;20090;-82
2023/12/03 03:39:39;;;;;;;948.88;856.75;;;1.20;99.90;;;;;;4951620;28;20047;-82
2023/12/03 03:42:05;;;;;;;956.85;866.05;;;1.10;99.90;;;;;;4962594;28;20049;-82
2023/12/03 03:44:31;;;;;;;976.10;878.80;;;-0.30;99.90;;;;;;4976798;28;20035;-83
2023/12/03 03:46:56;;;;;;;953.63;863.50;;;-0.30;99.90;;;;;;4963949;28;20038;-82
2023/12/03 03:49:22;;;;;;;942.75;854.92;;;1.10;99.90;;;;;;4963935;28;20038;-83
2023/12/03 03:51:49;;;;;;;964.55;871.50;;;0.80;99.90;;;;;;4968954;28;20455;-83
2023/12/03 03:54:15;;;;;;;983.45;886.35;;;-0.10;99.90;;;;;;4945002;28;20053;-83
2023/12/03 03:56:45;;;;;;;988.88;888.92;;;-0.10;99.90;;;;;;4965837;28;20043;-82
2023/12/03 03:59:10;;;;;;;991.28;890.97;;;0.00;99.90;;;;;;4960372;28;20051;-82
2023/12/03 04:01:41;;;;;;;1298.70;893.22;;;0.00;99.90;;;;;;4962890;28;20038;-82
2023/12/03 04:04:07;;;;;;;1152.85;899.30;;;1.20;99.90;;;;;;4982043;28;20314;-83
2023/12/03 04:06:40;;;;;;;1013.63;905.83;;;1.60;99.90;;;;;;4960944;28;20035;-82
2023/12/03 04:09:06;;;;;;;1032.93;925.20;;;0.20;99.90;;;;;;4981205;28;20054;-82
2023/12/03 04:11:37;;;;;;;1080.55;889.25;;;1.60;99.90;;;;;;4979615;28;20046;-83
2023/12/03 04:14:03;;;;;;;1095.60;922.75;;;0.70;99.90;;;;;;4963117;28;20039;-83
2023/12/03 04:16:28;;;;;;;1311.75;936.65;;;0.30;99.90;;;;;;4965799;28;20049;-83
2023/12/03 04:18:54;;;;;;;1186.60;946.03;;;0.30;99.90;;;;;;4971032;28;20033;-83
2023/12/03 04:21:20;;;;;;;1095.85;951.85;;;0.40;99.90;;;;;;4984565;28;20570;-83
2023/12/03 04:23:46;;;;;;;1065.38;940.25;;;0.40;99.90;;;;;;4976691;28;20439;-83
2023/12/03 04:26:12;;;;;;;1085.30;942.40;;;0.50;99.90;;;;;;4990502;28;20399;-83
2023/12/03 04:28:41;;;;;;;1046.10;931.08;;;0.50;99.90;;;;;;4965703;28;20042;-83
2023/12/03 04:31:25;;;;;;;1154.47;941.95;;;0.50;99.90;;;;;;4973243;28;20066;-83
2023/12/03 04:33:55;;;;;;;1031.40;922.80;;;0.60;99.90;;;;;;5015383;28;20098;-83
2023/12/03 04:36:25;;;;;;;1082.88;934.33;;;0.50;99.90;;;;;;5035567;28;20038;-83
2023/12/03 04:38:54;;;;;;;1139.38;927.03;;;0.80;99.90;;;;;;4979985;28;20075;-83
2023/12/03 04:41:20;;;;;;;1053.53;946.20;;;0.60;99.90;;;;;;4975113;28;20046;-83
2023/12/03 04:43:46;;;;;;;1023.00;914.90;;;0.60;99.90;;;;;;4968413;28;20042;-83
2023/12/03 04:46:12;;;;;;;1008.92;911.97;;;0.70;99.90;;;;;;4965939;28;20036;-82
2023/12/03 04:48:40;;;;;;;1041.30;926.75;;;1.90;99.90;;;;;;4971206;28;20042;-83
2023/12/03 04:51:06;;;;;;;1018.83;922.55;;;0.70;99.90;;;;;;4963946;28;20039;-83
2023/12/03 04:53:32;;;;;;;1003.65;910.38;;;0.70;99.90;;;;;;4968122;28;20058;-83
2023/12/03 04:55:58;;;;;;;1021.65;917.38;;;1.10;99.90;;;;;;4992549;28;20070;-83
2023/12/03 04:58:25;;;;;;;997.78;903.95;;;0.80;99.90;;;;;;4969433;28;20562;-83
2023/12/03 05:00:51;;;;;;;1000.78;908.58;;;0.80;99.90;;;;;;4989345;28;20057;-83
2023/12/03 05:03:17;;;;;;;997.03;897.50;;;0.80;99.90;;;;;;4972983;28;20114;-83
2023/12/03 05:05:43;;;;;;;970.72;886.75;;;1.60;99.90;;;;;;4963850;28;20059;-83
2023/12/03 05:08:08;;;;;;;952.03;859.20;;;0.80;99.90;;;;;;4957317;28;20066;-83
2023/12/03 05:10:34;;;;;;;957.33;875.03;;;0.80;99.90;;;;;;5001737;28;20076;-83
2023/12/03 05:13:00;;;;;;;948.70;863.75;;;0.90;99.90;;;;;;4976340;28;20051;-83
2023/12/03 05:15:25;;;;;;;976.47;890.53;;;0.90;99.90;;;;;;4986095;28;20061;-83
2023/12/03 05:17:51;;;;;;;988.38;891.88;;;0.90;99.90;;;;;;4977111;28;20049;-83
2023/12/03 05:20:17;;;;;;;989.17;893.00;;;0.90;99.90;;;;;;4983659;28;20061;-83
2023/12/03 05:22:42;;;;;;;992.50;901.33;;;2.20;99.90;;;;;;4975720;28;20045;-83
2023/12/03 05:25:08;;;;;;;1005.15;913.88;;;1.50;99.90;;;;;;4984947;28;20086;-83
2023/12/03 05:27:34;;;;;;;1036.88;941.75;;;1.50;99.90;;;;;;4964383;28;20114;-83
2023/12/03 05:30:00;;;;;;;1032.95;929.58;;;0.90;99.90;;;;;;4989569;28;20050;-83
2023/12/03 05:32:29;;;;;;;1028.60;934.30;;;1.30;99.90;;;;;;5006552;28;20043;-83
2023/12/03 05:34:55;;;;;;;1325.05;917.17;;;2.10;99.90;;;;;;4964369;28;20043;-83
2023/12/03 05:37:20;;;;;;;1028.88;935.88;;;2.50;99.90;;;;;;4992178;28;20034;-83
2023/12/03 05:39:46;;;;;;;1043.68;944.30;;;1.80;99.90;;;;;;4986950;28;20069;-83
2023/12/03 05:42:13;;;;;;;1026.63;927.72;;;2.00;99.90;;;;;;4979677;28;20038;-83
2023/12/03 05:44:39;;;;;;;1039.28;934.83;;;1.00;99.90;;;;;;5002333;28;20038;-83
2023/12/03 05:47:04;;;;;;;1027.82;930.17;;;2.10;99.90;;;;;;4981832;28;20062;-83
2023/12/03 05:49:30;;;;;;;1026.57;897.38;;;0.20;99.90;;;;;;4965502;28;20034;-83
2023/12/03 05:51:59;;;;;;;1036.10;939.58;;;1.00;99.90;;;;;;4967024;28;20038;-83
2023/12/03 05:54:24;;;;;;;997.72;903.25;;;0.40;99.90;;;;;;4982531;28;20069;-83
2023/12/03 05:56:50;;;;;;;1008.53;914.53;;;2.30;99.90;;;;;;4986743;28;20038;-83
2023/12/03 05:59:16;;;;;;;1012.65;919.42;;;2.60;99.90;;;;;;4983732;28;20062;-84
2023/12/03 06:01:43;;;;;;;990.17;894.33;;;2.30;99.90;;;;;;4977097;28;20050;-83
2023/12/03 06:04:10;;;;;;;994.65;904.20;;;1.10;99.90;;;;;;4965917;28;20106;-83
2023/12/03 06:06:36;;;;;;;989.42;898.85;;;1.10;99.90;;;;;;4971312;28;20046;-83
2023/12/03 06:09:05;;;;;;;971.35;875.65;;;1.10;99.90;;;;;;4952609;28;20051;-83
2023/12/03 06:11:32;;;;;;;975.00;880.97;;;1.10;99.90;;;;;;4948643;28;20043;-83
2023/12/03 06:13:59;;;;;;;983.33;882.08;;;2.30;99.90;;;;;;4947846;28;20536;-83
2023/12/03 06:16:24;;;;;;;979.15;877.47;;;1.10;99.90;;;;;;4958985;28;20039;-83
2023/12/03 06:18:50;;;;;;;1005.55;898.40;;;1.20;99.90;;;;;;4947657;28;20078;-84
2023/12/03 06:21:16;;;;;;;994.90;891.70;;;1.10;99.90;;;;;;4947454;28;20050;-84
2023/12/03 06:23:41;;;;;;;1006.55;901.95;;;1.20;99.90;;;;;;4947821;28;20042;-84
2023/12/03 06:26:08;;;;;;;980.53;885.50;;;1.30;99.90;;;;;;4958290;29;20103;-83
2023/12/03 06:28:34;;;;;;;957.38;868.08;;;1.20;99.90;;;;;;4949491;28;20068;-83
2023/12/03 06:31:00;;;;;;;960.83;875.83;;;1.20;99.90;;;;;;4951565;28;20087;-83
2023/12/03 06:33:25;;;;;;;979.58;889.58;;;1.20;99.90;;;;;;4955719;29;20046;-83
2023/12/03 06:35:53;;;;;;;975.00;880.15;;;1.20;99.90;;;;;;4945134;29;20051;-83
2023/12/03 06:38:18;;;;;;;959.38;874.10;;;2.70;99.90;;;;;;4945421;29;20058;-83
2023/12/03 06:40:44;;;;;;;960.47;875.90;;;1.20;99.90;;;;;;4947699;28;20035;-83
2023/12/03 06:43:10;;;;;;;929.90;852.13;;;1.20;99.90;;;;;;4948805;28;20035;-83
2023/12/03 06:45:37;;;;;;;936.78;857.30;;;1.20;99.90;;;;;;4949740;28;20102;-83
2023/12/03 06:48:03;;;;;;;930.03;850.60;;;1.80;99.90;;;;;;4948040;29;20130;-83
2023/12/03 06:50:29;;;;;;;946.15;861.90;;;1.20;99.90;;;;;;4947819;28;20046;-83
2023/12/03 06:52:55;;;;;;;962.95;870.42;;;2.50;99.90;;;;;;4950421;28;20039;-83
2023/12/03 06:55:20;;;;;;;931.92;848.70;;;1.20;99.90;;;;;;4947394;28;20042;-83
2023/12/03 06:57:50;;;;;;;938.80;858.28;;;1.20;99.90;;;;;;4948000;28;20057;-83
2023/12/03 07:00:17;;;;;;;942.42;858.15;;;2.50;99.90;;;;;;4956692;28;20063;-83
2023/12/03 07:02:45;;;;;;;941.53;856.85;;;1.20;99.90;;;;;;4961057;28;20035;-83
2023/12/03 07:05:11;;;;;;;919.13;842.08;;;2.20;99.90;;;;;;4943381;28;20068;-83
2023/12/03 07:07:40;;;;;;;930.47;848.20;;;1.20;99.90;;;;;;4969026;28;20197;-83
2023/12/03 07:10:07;;;;;;;909.22;831.00;;;1.10;99.90;;;;;;4974372;28;20042;-83
2023/12/03 07:12:33;;;;;;;936.47;854.38;;;0.40;99.90;;;;;;4958134;28;20038;-83
2023/12/03 07:14:58;;;;;;;942.30;856.90;;;2.30;99.90;;;;;;4971239;28;20082;-83
2023/12/03 07:17:24;;;;;;;919.83;839.75;;;1.90;99.90;;;;;;4960780;28;20038;-83
2023/12/03 07:19:51;;;;;;;906.20;829.03;;;1.20;99.90;;;;;;4969954;28;20043;-82
2023/12/03 07:22:17;;;;;;;939.25;855.78;;;1.20;99.90;;;;;;4964860;28;20046;-83
2023/12/03 07:24:43;;;;;;;928.85;849.25;;;1.20;99.90;;;;;;4962867;28;20042;-83
2023/12/03 07:27:08;;;;;;;937.40;854.60;;;1.20;99.90;;;;;;4951971;28;20046;-84
2023/12/03 07:29:36;;;;;;;934.95;853.22;;;2.60;99.90;;;;;;4970694;28;20045;-83
2023/12/03 07:32:02;;;;;;;914.53;835.53;;;2.40;99.90;;;;;;4934564;28;20061;-82
2023/12/03 07:34:28;;;;;;;925.50;844.10;;;1.30;99.90;;;;;;4955244;28;20570;-83
2023/12/03 07:36:53;;;;;;;931.40;846.15;;;1.30;99.90;;;;;;4963206;28;20042;-81
2023/12/03 07:39:20;;;;;;;938.40;852.25;;;2.40;99.90;;;;;;4964874;28;20094;-82
2023/12/03 07:41:50;;;;;;;919.50;839.20;;;2.30;99.90;;;;;;4967044;28;20051;-82
2023/12/03 07:44:16;;;;;;;916.15;835.22;;;1.30;99.90;;;;;;4953451;28;20034;-84
2023/12/03 07:46:42;;;;;;;917.40;833.00;;;1.30;99.90;;;;;;4957782;28;20042;-86
2023/12/03 07:49:08;;;;;;;935.58;851.40;;;2.70;99.90;;;;;;4967435;28;20039;-86
2023/12/03 07:51:34;;;;;;;940.28;854.50;;;1.40;99.90;;;;;;4997029;28;20035;-88
2023/12/03 07:54:00;;;;;;;918.38;835.63;;;1.70;99.90;;;;;;4981010;28;20035;-89
2023/12/03 07:56:36;;;;;;;900.90;823.15;;;1.40;99.90;;;;;;4966963;28;20053;-88
2023/12/03 07:59:02;;;;;;;1043.78;842.25;;;2.90;99.90;;;;;;4963686;28;20418;-89
2023/12/03 08:01:28;;;;;;;922.65;837.97;;;1.30;99.90;;;;;;4943636;28;20280;-89
2023/12/03 08:03:54;;;;;;;934.20;849.20;;;2.40;99.90;;;;;;4966893;28;20077;-89
2023/12/03 08:06:19;;;;;;;907.03;826.08;;;2.50;99.90;;;;;;4956174;28;20106;-89
2023/12/03 08:08:45;;;;;;;917.65;836.92;;;2.30;99.90;;;;;;5006498;28;20054;-89
2023/12/03 08:11:11;;;;;;;929.17;847.10;;;2.10;99.90;;;;;;4963563;28;20035;-89
2023/12/03 08:13:38;;;;;;;940.05;857.60;;;2.80;99.90;;;;;;4972719;28;20066;-89
2023/12/03 08:16:05;;;;;;;919.03;836.25;;;1.50;99.90;;;;;;4981506;28;20038;-88
2023/12/03 08:18:31;;;;;;;904.33;825.13;;;1.50;99.90;;;;;;4970832;28;20048;-85
2023/12/03 08:20:58;;;;;;;910.72;834.10;;;1.60;99.90;;;;;;4960608;28;20105;-85
2023/12/03 08:23:23;;;;;;;879.35;803.50;;;1.50;99.90;;;;;;4945738;29;20063;-85
2023/12/03 08:25:49;;;;;;;918.42;839.33;;;2.80;99.90;;;;;;4941426;29;20054;-85
2023/12/03 08:28:18;;;;;;;1259.15;880.67;;;2.70;99.90;;;;;;5003735;28;20038;-85
2023/12/03 08:30:44;;;;;;;897.97;820.00;;;2.00;99.90;;;;;;4958822;28;20034;-84
2023/12/03 08:33:09;;;;;;;897.33;820.53;;;1.60;99.90;;;;;;4975953;28;20039;-84
2023/12/03 08:35:35;;;;;;;913.00;834.40;;;2.90;99.90;;;;;;4974629;28;20047;-85
2023/12/03 08:38:00;;;;;;;937.97;851.95;;;1.70;99.90;;;;;;4972680;28;20078;-84
2023/12/03 08:40:26;;;;;;;900.53;820.78;;;1.60;99.90;;;;;;4967640;29;20043;-84
2023/12/03 08:42:52;;;;;;;899.25;820.58;;;2.10;99.90;;;;;;4962614;28;20039;-85
2023/12/03 08:45:19;;;;;;;897.15;817.60;;;1.90;99.90;;;;;;4958277;28;20109;-85
2023/12/03 08:47:45;;;;;;;904.55;826.45;;;1.80;99.90;;;;;;4966046;28;20034;-85
2023/12/03 08:50:10;;;;;;;901.45;823.75;;;1.70;99.90;;;;;;4980525;28;20046;-85
2023/12/03 08:52:36;;;;;;;918.30;834.63;;;2.70;99.90;;;;;;4956202;28;20050;-85
2023/12/03 08:55:02;;;;;;;930.42;847.65;;;1.80;99.90;;;;;;4974836;28;20034;-85
2023/12/03 08:57:28;;;;;;;918.05;838.63;;;1.80;99.90;;;;;;4970524;28;20071;-85
2023/12/03 08:59:54;;;;;;;937.95;853.08;;;2.60;99.90;;;;;;4952440;28;20039;-86
2023/12/03 09:02:20;;;;;;;944.10;858.42;;;1.80;99.90;;;;;;4946227;28;20035;-86
2023/12/03 09:04:46;;;;;;;922.90;842.50;;;2.10;99.90;;;;;;4955143;28;20043;-86
2023/12/03 09:07:13;;;;;;;898.15;821.67;;;2.80;99.90;;;;;;4956351;28;20074;-86
2023/12/03 09:09:39;;;;;;;885.25;809.47;;;1.90;99.90;;;;;;4952313;28;20066;-85
2023/12/03 09:12:06;;;;;;;887.70;810.53;;;1.90;99.90;;;;;;4944581;29;20043;-85
2023/12/03 09:14:31;;;;;;;893.17;816.95;;;0.90;99.90;;;;;;4947624;28;20038;-85
2023/12/03 09:16:58;;;;;;;899.78;824.08;;;2.00;99.90;;;;;;4951911;28;20066;-86
2023/12/03 09:19:24;;;;;;;885.53;810.08;;;2.00;99.90;;;;;;4945459;29;20059;-85
2023/12/03 09:21:50;;;;;;;878.88;805.50;;;2.10;99.90;;;;;;4945240;28;20043;-85
2023/12/03 09:24:16;;;;;;;884.53;809.72;;;2.00;99.90;;;;;;4942269;28;20045;-85
2023/12/03 09:26:44;;;;;;;870.83;797.05;;;2.00;99.90;;;;;;4963702;29;20528;-86
2023/12/03 09:29:13;;;;;;;880.80;806.50;;;3.10;99.90;;;;;;4946552;28;20035;-87
2023/12/03 09:31:39;;;;;;;912.08;832.20;;;2.70;99.90;;;;;;4946617;29;20042;-87
2023/12/03 09:34:06;;;;;;;881.95;807.97;;;3.40;99.90;;;;;;4949632;28;20034;-87
2023/12/03 09:36:32;;;;;;;892.25;816.50;;;2.10;99.90;;;;;;4952420;28;20045;-86
2023/12/03 09:38:57;;;;;;;861.08;789.42;;;2.20;99.90;;;;;;4949991;28;20523;-88
2023/12/03 09:41:24;;;;;;;858.80;788.13;;;2.10;99.90;;;;;;4952965;28;20035;-87
2023/12/03 09:43:58;;;;;;;881.13;807.20;;;2.30;99.90;;;;;;4946673;28;20054;-90
2023/12/03 09:46:25;;;;;;;886.00;810.05;;;2.80;99.90;;;;;;4950173;28;20030;-89
2023/12/03 09:48:53;;;;;;;878.58;803.00;;;3.20;99.90;;;;;;4956482;28;20038;-89
2023/12/03 09:51:19;;;;;;;875.28;800.47;;;3.00;99.90;;;;;;4950585;28;20054;-87
2023/12/03 09:53:49;;;;;;;871.72;796.55;;;2.60;99.90;;;;;;4947427;29;20066;-90
2023/12/03 09:56:20;;;;;;;914.70;831.45;;;3.20;99.90;;;;;;4967677;28;20043;-88
2023/12/03 09:59:09;;;;;;;883.63;807.25;;;3.90;99.90;;;;;;4938556;28;20113;-87
2023/12/03 10:01:37;;;;;;;886.72;810.63;;;2.60;99.90;;;;;;4954579;28;20467;-89
2023/12/03 10:04:04;;;;;;;867.70;794.47;;;3.40;99.90;;;;;;4946993;28;20090;-89
2023/12/03 10:06:32;;;;;;;881.40;808.47;;;2.60;99.90;;;;;;4950658;28;20106;-88
2023/12/03 10:08:59;;;;;;;864.88;792.70;;;3.30;99.90;;;;;;4978028;28;20080;-86
2023/12/03 10:11:26;;;;;;;882.42;808.55;;;2.70;99.90;;;;;;4966909;28;20109;-88
2023/12/03 10:13:54;;;;;;;889.70;811.75;;;4.20;99.90;;;;;;4971093;28;20610;-90
2023/12/03 10:16:22;;;;;;;863.97;790.42;;;3.20;99.90;;;;;;4978386;28;20031;-85
2023/12/03 10:18:49;;;;;;;845.15;774.38;;;4.00;99.90;;;;;;4970027;28;20098;-87
2023/12/03 10:21:15;;;;;;;847.70;776.50;;;2.80;99.90;;;;;;4971033;28;20171;-88
2023/12/03 10:23:41;;;;;;;854.63;780.70;;;3.30;99.90;;;;;;4968925;28;20041;-87
2023/12/03 10:26:11;;;;;;;872.20;795.95;;;4.10;99.90;;;;;;4973936;28;20668;-90
2023/12/03 10:28:39;;;;;;;848.95;778.28;;;2.80;99.90;;;;;;4972682;28;20132;-90
2023/12/03 10:31:15;;;;;;;824.58;755.53;;;3.50;99.90;;;;;;4988753;28;20054;-90
2023/12/03 10:33:45;;;;;;;847.85;772.97;;;2.70;99.90;;;;;;4966901;28;20030;-91
2023/12/03 10:36:12;;;;;;;811.55;742.50;;;3.80;99.90;;;;;;4972566;28;20039;-91
2023/12/03 10:38:40;;;;;;;815.22;747.15;;;2.70;99.90;;;;;;4961826;28;20027;-88
2023/12/03 10:41:13;;;;;;;820.40;750.05;;;2.60;99.90;;;;;;4990439;28;20030;-89
2023/12/03 10:43:40;;;;;;;845.08;767.95;;;3.00;99.90;;;;;;4984790;28;20142;-90
2023/12/03 10:46:12;;;;;;;842.78;766.72;;;3.60;99.90;;;;;;4968895;28;20057;-88
2023/12/03 10:48:39;;;;;;;815.38;746.33;;;3.80;99.90;;;;;;4981042;28;20053;-87
2023/12/03 10:51:09;;;;;;;809.92;742.58;;;1.50;99.90;;;;;;4985424;28;20488;-85
2023/12/03 10:53:36;;;;;;;792.88;723.70;;;2.60;99.90;;;;;;4962956;28;20135;-85
2023/12/03 10:56:03;;;;;;;821.10;747.28;;;1.60;99.90;;;;;;4960805;28;20045;-86
2023/12/03 10:58:31;;;;;;;829.88;757.90;;;2.50;99.90;;;;;;4959875;28;20194;-82
2023/12/03 11:01:20;;;;;;;805.17;734.78;;;3.40;99.90;;;;;;4961524;28;20030;-87
2023/12/03 11:04:03;;;;;;;796.65;725.40;;;3.90;99.90;;;;;;4978537;28;20042;-87
2023/12/03 11:06:33;;;;;;;783.63;717.92;;;2.60;99.90;;;;;;4967439;28;20062;-85
2023/12/03 11:08:59;;;;;;;795.10;729.78;;;2.60;99.90;;;;;;4968087;28;20089;-88
2023/12/03 11:11:25;;;;;;;797.80;732.17;;;2.60;99.90;;;;;;4988872;28;20043;-88
2023/12/03 11:13:54;;;;;;;817.63;747.70;;;2.60;99.90;;;;;;4971512;28;20038;-88
2023/12/03 11:16:20;;;;;;;789.28;725.67;;;2.60;99.90;;;;;;4974233;28;20035;-89
2023/12/03 11:19:02;;;;;;;799.20;732.72;;;2.60;99.90;;;;;;4964874;28;20089;-88
2023/12/03 11:21:33;;;;;;;788.38;723.72;;;2.50;99.90;;;;;;4965755;28;20038;-88
2023/12/03 11:24:26;;;;;;;779.13;718.25;;;2.50;99.90;;;;;;4962867;28;20038;-88
2023/12/03 11:26:52;;;;;;;784.22;722.42;;;2.50;99.90;;;;;;4980406;28;20039;-88
2023/12/03 11:29:51;;;;;;;783.08;721.47;;;2.40;99.90;;;;;;4981996;28;20542;-88
2023/12/03 11:32:17;;;;;;;790.22;725.08;;;2.40;99.90;;;;;;4969111;28;20047;-88
2023/12/03 11:34:49;;;;;;;800.08;735.70;;;2.90;99.90;;;;;;4985610;28;20043;-88
2023/12/03 11:37:15;;;;;;;800.47;735.38;;;2.70;99.90;;;;;;4963815;28;20178;-88
2023/12/03 11:39:44;;;;;;;805.55;738.53;;;2.60;99.90;;;;;;4962074;28;20118;-88
2023/12/03 11:42:12;;;;;;;808.42;743.00;;;3.40;99.90;;;;;;4968404;28;20069;-88
2023/12/03 11:44:38;;;;;;;828.00;760.90;;;2.70;99.90;;;;;;4981009;28;20066;-88
2023/12/03 11:47:10;;;;;;;863.25;792.30;;;2.80;99.90;;;;;;4977471;28;20080;-88
2023/12/03 11:49:37;;;;;;;864.20;790.55;;;2.90;99.90;;;;;;4967288;28;20561;-87
2023/12/03 11:52:04;;;;;;;878.70;806.28;;;4.10;99.90;;;;;;4964261;28;20035;-89
2023/12/03 11:55:05;;;;;;;884.75;810.38;;;3.00;99.90;;;;;;4975606;28;20035;-89
2023/12/03 11:57:35;;;;;;;890.38;814.08;;;2.30;99.90;;;;;;4987774;28;20090;-88
2023/12/03 12:00:01;;;;;;;885.50;811.25;;;3.60;99.90;;;;;;4988865;28;20101;-88
2023/12/03 12:02:26;;;;;;;871.28;797.20;;;3.00;99.90;;;;;;4977319;28;20035;-87
2023/12/03 12:04:52;;;;;;;892.53;811.70;;;3.00;99.90;;;;;;4961963;28;20135;-87
2023/12/03 12:07:18;;;;;;;885.70;805.53;;;3.90;99.90;;;;;;4968485;28;20112;-87
2023/12/03 12:09:48;;;;;;;916.00;831.67;;;4.20;99.90;;;;;;4967086;28;20081;-88
2023/12/03 12:12:15;;;;;;;912.47;829.53;;;2.90;99.90;;;;;;4988380;28;20043;-87
2023/12/03 12:14:40;;;;;;;917.47;834.72;;;4.10;99.90;;;;;;4995205;28;20069;-88
2023/12/03 12:17:09;;;;;;;906.05;827.85;;;2.80;99.90;;;;;;4967558;28;20048;-86